createdAt,value
2023-10-26T00:00:00.545Z,20.23
2023-10-26T00:01:02.871Z,20.85
2023-10-26T00:02:05.195Z,21.45
2023-10-26T00:03:07.316Z,21.64
2023-10-26T00:04:09.875Z,21.91
2023-10-26T00:05:12.166Z,22.41
2023-10-26T00:06:14.656Z,21.70
2023-10-26T00:07:16.756Z,21.39
2023-10-26T00:08:18.758Z,21.03
2023-10-26T00:09:20.724Z,20.89
2023-10-26T00:10:23.450Z,21.88
2023-10-26T00:11:26.089Z,20.41
2023-10-26T00:12:28.189Z,22.51
2023-10-26T00:13:30.275Z,22.89
2023-10-26T00:14:32.188Z,22.85
2023-10-26T00:15:34.581Z,21.84
2023-10-26T00:16:37.804Z,21.78
2023-10-26T00:17:39.845Z,21.90
2023-10-26T00:18:41.996Z,22.27
2023-10-26T00:19:44.058Z,21.82
2023-10-26T00:20:46.276Z,21.57
2023-10-26T00:21:48.664Z,20.91
2023-10-26T00:22:50.828Z,21.60
2023-10-26T00:23:52.986Z,20.16
2023-10-26T00:24:55.064Z,20.15
2023-10-26T00:25:56.974Z,20.15
2023-10-26T00:27:00.230Z,19.69
2023-10-26T00:28:02.257Z,21.07
2023-10-26T00:29:04.291Z,20.04
2023-10-26T00:30:10.801Z,19.31
2023-10-26T00:31:12.862Z,19.76
2023-10-26T00:32:15.222Z,18.73
2023-10-26T00:33:18.615Z,18.53
2023-10-26T00:34:22.877Z,17.95
2023-10-26T00:35:25.009Z,18.73
2023-10-26T00:36:27.261Z,16.87
2023-10-26T00:37:29.760Z,16.99
2023-10-26T00:38:32.631Z,16.82
2023-10-26T00:39:35.443Z,16.49
2023-10-26T00:40:37.884Z,16.54
2023-10-26T00:41:39.976Z,16.33
2023-10-26T00:42:42.118Z,16.36
2023-10-26T00:43:44.127Z,16.09
2023-10-26T00:44:46.080Z,15.28
2023-10-26T00:45:53.002Z,15.14
2023-10-26T00:46:55.558Z,16.57
2023-10-26T00:47:58.119Z,16.44
2023-10-26T00:49:00.212Z,15.84
2023-10-26T00:50:02.679Z,15.67
2023-10-26T00:51:05.453Z,14.71
2023-10-26T00:52:09.349Z,13.93
2023-10-26T00:53:13.375Z,14.70
2023-10-26T00:54:17.446Z,14.18
2023-10-26T00:55:20.433Z,15.04
2023-10-26T00:56:23.247Z,15.99
2023-10-26T00:57:28.544Z,14.47
2023-10-26T00:58:30.589Z,15.01
2023-10-26T00:59:34.262Z,13.75
2023-10-26T01:00:38.373Z,13.84
2023-10-26T01:01:40.302Z,13.94
2023-10-26T01:02:44.748Z,12.79
2023-10-26T01:03:49.355Z,12.25
2023-10-26T01:04:51.297Z,12.27
2023-10-26T01:05:53.930Z,12.25
2023-10-26T01:06:56.213Z,12.20
2023-10-26T01:07:58.290Z,11.71
2023-10-26T01:09:01.808Z,12.02
2023-10-26T01:10:04.612Z,10.69
2023-10-26T01:11:06.855Z,10.33
2023-10-26T01:12:09.882Z,10.50
2023-10-26T01:13:13.480Z,10.24
2023-10-26T01:14:16.152Z,10.39
2023-10-26T01:15:18.311Z,10.50
2023-10-26T01:16:20.731Z,10.50
2023-10-26T01:17:23.587Z,10.07
2023-10-26T01:18:26.782Z,9.89
2023-10-26T01:19:43.906Z,9.21
2023-10-26T01:20:46.232Z,9.11
2023-10-26T01:21:49.965Z,9.29
2023-10-26T01:22:52.050Z,9.16
2023-10-26T01:23:54.357Z,9.13
2023-10-26T01:24:56.313Z,9.35
2023-10-26T01:25:58.664Z,9.75
2023-10-26T01:27:01.317Z,9.81
2023-10-26T01:28:03.635Z,9.09
2023-10-26T01:29:05.636Z,9.02
2023-10-26T01:30:09.357Z,9.12
2023-10-26T01:31:11.356Z,9.24
2023-10-26T01:32:15.018Z,9.34
2023-10-26T01:33:17.105Z,8.41
2023-10-26T01:34:19.514Z,9.63
2023-10-26T01:35:21.441Z,8.56
2023-10-26T01:36:24.767Z,9.08
2023-10-26T01:37:27.349Z,8.60
2023-10-26T01:38:29.274Z,8.97
2023-10-26T01:39:31.910Z,8.38
2023-10-26T01:40:34.009Z,9.19
2023-10-26T01:41:35.990Z,8.34
2023-10-26T01:42:38.051Z,8.10
2023-10-26T01:43:40.102Z,8.38
2023-10-26T01:44:42.476Z,8.32
2023-10-26T01:45:46.180Z,7.59
2023-10-26T01:46:48.530Z,8.08
2023-10-26T01:47:50.783Z,8.09
2023-10-26T01:48:52.949Z,7.32
2023-10-26T01:49:55.187Z,7.64
2023-10-26T01:50:57.315Z,8.37
2023-10-26T01:51:59.313Z,8.32
2023-10-26T01:53:01.325Z,7.45
2023-10-26T01:54:03.754Z,7.93
2023-10-26T01:55:07.531Z,7.97
2023-10-26T01:56:11.903Z,7.66
2023-10-26T01:57:14.241Z,7.81
2023-10-26T01:58:16.822Z,8.28
2023-10-26T01:59:18.817Z,7.85
2023-10-26T02:00:21.380Z,7.23
2023-10-26T02:01:23.955Z,7.73
2023-10-26T02:02:25.945Z,7.87
2023-10-26T02:03:28.262Z,7.20
2023-10-26T02:04:30.745Z,7.78
2023-10-26T02:05:33.416Z,8.15
2023-10-26T02:06:35.657Z,7.53
2023-10-26T02:07:37.886Z,7.81
2023-10-26T02:08:39.766Z,8.32
2023-10-26T02:09:43.595Z,8.28
2023-10-26T02:10:47.004Z,8.54
2023-10-26T02:11:49.047Z,8.28
2023-10-26T02:12:51.033Z,8.11
2023-10-26T02:13:54.856Z,8.49
2023-10-26T02:14:57.212Z,9.15
2023-10-26T02:15:59.199Z,9.56
2023-10-26T02:17:01.276Z,9.97
2023-10-26T02:18:04.082Z,9.53
2023-10-26T02:19:06.201Z,9.95
2023-10-26T02:20:09.462Z,9.93
2023-10-26T02:21:11.819Z,9.88
2023-10-26T02:22:13.847Z,9.15
2023-10-26T02:23:16.137Z,10.08
2023-10-26T02:24:18.234Z,9.03
2023-10-26T02:25:20.412Z,8.67
2023-10-26T02:26:23.891Z,9.13
2023-10-26T02:27:25.842Z,8.74
2023-10-26T02:28:29.809Z,9.17
2023-10-26T02:29:31.957Z,9.22
2023-10-26T02:30:36.110Z,9.43
2023-10-26T02:31:38.363Z,10.08
2023-10-26T02:32:41.439Z,9.41
2023-10-26T02:33:43.514Z,9.59
2023-10-26T02:34:45.823Z,9.60
2023-10-26T02:35:47.952Z,9.03
2023-10-26T02:36:52.344Z,9.38
2023-10-26T02:37:54.379Z,9.12
2023-10-26T02:38:56.742Z,9.21
2023-10-26T02:39:59.372Z,9.81
2023-10-26T02:41:05.752Z,9.79
2023-10-26T02:42:08.055Z,9.46
2023-10-26T02:43:10.059Z,9.11
2023-10-26T02:44:12.097Z,9.53
2023-10-26T02:45:14.989Z,9.87
2023-10-26T02:46:17.092Z,9.58
2023-10-26T02:47:19.008Z,11.08
2023-10-26T02:48:20.966Z,9.79
2023-10-26T02:49:23.123Z,10.11
2023-10-26T02:50:25.654Z,9.51
2023-10-26T02:51:27.627Z,10.61
2023-10-26T02:52:29.572Z,10.62
2023-10-26T02:53:32.005Z,10.38
2023-10-26T02:54:34.103Z,9.45
2023-10-26T02:55:38.173Z,8.85
2023-10-26T02:56:40.367Z,9.19
2023-10-26T02:57:42.475Z,9.11
2023-10-26T02:58:44.667Z,8.46
2023-10-26T02:59:46.694Z,7.80
2023-10-26T03:00:48.817Z,8.01
2023-10-26T03:01:50.845Z,8.72
2023-10-26T03:02:52.932Z,7.59
2023-10-26T03:03:55.025Z,7.81
2023-10-26T03:04:57.071Z,8.19
2023-10-26T03:06:00.106Z,7.69
2023-10-26T03:07:02.339Z,8.60
2023-10-26T03:08:05.476Z,7.79
2023-10-26T03:09:08.027Z,8.47
2023-10-26T03:10:10.358Z,8.27
2023-10-26T03:11:12.336Z,8.09
2023-10-26T03:12:14.415Z,9.45
2023-10-26T03:13:16.526Z,8.79
2023-10-26T03:14:18.542Z,8.72
2023-10-26T03:15:21.033Z,9.01
2023-10-26T03:16:23.422Z,8.46
2023-10-26T03:17:25.511Z,8.57
2023-10-26T03:18:29.439Z,8.75
2023-10-26T03:19:31.566Z,9.48
2023-10-26T03:20:33.661Z,9.80
2023-10-26T03:21:36.617Z,9.21
2023-10-26T03:22:39.744Z,9.78
2023-10-26T03:23:41.687Z,9.23
2023-10-26T03:24:43.933Z,8.79
2023-10-26T03:25:46.093Z,10.49
2023-10-26T03:26:48.225Z,10.01
2023-10-26T03:27:53.267Z,9.90
2023-10-26T03:28:55.314Z,9.84
2023-10-26T03:29:57.397Z,10.27
2023-10-26T03:30:59.415Z,9.31
2023-10-26T03:32:01.460Z,9.31
2023-10-26T03:33:03.557Z,9.66
2023-10-26T03:34:05.666Z,9.65
2023-10-26T03:35:09.232Z,10.93
2023-10-26T03:36:15.890Z,10.36
2023-10-26T03:37:17.955Z,9.65
2023-10-26T03:38:20.015Z,9.98
2023-10-26T03:39:22.325Z,9.66
2023-10-26T03:40:24.562Z,9.87
2023-10-26T03:41:26.754Z,9.93
2023-10-26T03:42:28.814Z,10.63
2023-10-26T03:43:30.784Z,9.30
2023-10-26T03:44:32.673Z,9.49
2023-10-26T03:45:34.601Z,9.12
2023-10-26T03:46:37.334Z,9.63
2023-10-26T03:47:40.785Z,9.62
2023-10-26T03:48:43.005Z,9.65
2023-10-26T03:49:45.244Z,9.43
2023-10-26T03:50:47.540Z,9.62
2023-10-26T03:51:49.788Z,9.83
2023-10-26T03:52:51.731Z,10.63
2023-10-26T03:53:53.847Z,9.17
2023-10-26T03:54:56.025Z,9.47
2023-10-26T03:55:58.430Z,10.59
2023-10-26T03:57:00.495Z,9.61
2023-10-26T03:58:02.471Z,9.77
2023-10-26T03:59:05.041Z,9.81
2023-10-26T04:00:09.046Z,8.46
2023-10-26T04:01:12.081Z,9.00
2023-10-26T04:02:14.114Z,9.24
2023-10-26T04:03:17.076Z,9.05
2023-10-26T04:04:19.044Z,15.21
2023-10-26T04:05:21.149Z,9.04
2023-10-26T04:06:23.416Z,9.93
2023-10-26T04:07:25.392Z,12.33
2023-10-26T04:08:29.314Z,10.39
2023-10-26T04:09:31.372Z,10.29
2023-10-26T04:10:34.550Z,20.31
2023-10-26T04:11:36.544Z,8.88
2023-10-26T04:12:38.635Z,10.52
2023-10-26T04:13:40.536Z,10.30
2023-10-26T04:14:42.646Z,8.95
2023-10-26T04:15:44.866Z,8.65
2023-10-26T04:16:47.212Z,8.74
2023-10-26T04:17:50.387Z,8.91
2023-10-26T04:18:52.490Z,9.45
2023-10-26T04:19:54.387Z,8.43
2023-10-26T04:20:56.626Z,9.13
2023-10-26T04:21:58.718Z,9.00
2023-10-26T04:23:00.745Z,8.67
2023-10-26T04:24:03.044Z,8.38
2023-10-26T04:25:05.768Z,10.80
2023-10-26T04:26:08.255Z,9.77
2023-10-26T04:27:11.313Z,9.01
2023-10-26T04:28:16.279Z,8.66
2023-10-26T04:29:18.337Z,8.16
2023-10-26T04:30:20.524Z,8.54
2023-10-26T04:31:22.554Z,7.73
2023-10-26T04:32:24.893Z,8.54
2023-10-26T04:33:26.919Z,8.63
2023-10-26T04:34:29.685Z,8.11
2023-10-26T04:35:32.818Z,8.17
2023-10-26T04:36:34.835Z,8.80
2023-10-26T04:37:36.795Z,8.61
2023-10-26T04:38:38.733Z,7.06
2023-10-26T04:39:40.773Z,7.76
2023-10-26T04:40:43.352Z,7.62
2023-10-26T04:41:45.398Z,7.33
2023-10-26T04:42:47.664Z,7.92
2023-10-26T04:43:51.926Z,7.13
2023-10-26T04:44:53.985Z,7.58
2023-10-26T04:45:56.011Z,7.25
2023-10-26T04:46:58.106Z,6.53
2023-10-26T04:48:00.633Z,7.17
2023-10-26T04:49:03.789Z,7.59
2023-10-26T04:50:08.770Z,6.89
2023-10-26T04:51:10.761Z,7.02
2023-10-26T04:52:13.973Z,8.17
2023-10-26T04:53:15.996Z,6.92
2023-10-26T04:54:18.053Z,6.96
2023-10-26T04:55:20.088Z,6.99
2023-10-26T04:56:22.180Z,6.68
2023-10-26T04:57:24.110Z,6.57
2023-10-26T04:58:26.117Z,7.93
2023-10-26T04:59:28.451Z,6.37
2023-10-26T05:00:33.102Z,7.39
2023-10-26T05:01:35.667Z,6.17
2023-10-26T05:02:38.778Z,6.77
2023-10-26T05:03:41.131Z,6.29
2023-10-26T05:04:43.421Z,6.58
2023-10-26T05:05:45.884Z,6.98
2023-10-26T05:06:48.229Z,6.39
2023-10-26T05:07:50.314Z,6.65
2023-10-26T05:08:52.241Z,6.47
2023-10-26T05:09:54.281Z,6.23
2023-10-26T05:10:56.473Z,5.69
2023-10-26T05:11:58.410Z,6.71
2023-10-26T05:13:00.577Z,6.51
2023-10-26T05:14:02.826Z,6.48
2023-10-26T05:15:07.256Z,5.91
2023-10-26T05:16:11.787Z,6.59
2023-10-26T05:17:13.993Z,6.74
2023-10-26T05:18:16.123Z,6.74
2023-10-26T05:19:18.238Z,7.28
2023-10-26T05:20:20.430Z,7.03
2023-10-26T05:21:22.577Z,7.37
2023-10-26T05:22:24.611Z,6.85
2023-10-26T05:23:27.092Z,7.28
2023-10-26T05:24:29.494Z,6.33
2023-10-26T05:25:32.946Z,7.16
2023-10-26T05:26:35.081Z,6.83
2023-10-26T05:27:37.645Z,6.33
2023-10-26T05:28:39.895Z,6.14
2023-10-26T05:29:42.187Z,6.85
2023-10-26T05:30:44.346Z,6.38
2023-10-26T05:31:46.397Z,6.77
2023-10-26T05:32:49.991Z,6.21
2023-10-26T05:33:52.153Z,6.94
2023-10-26T05:34:54.467Z,6.40
2023-10-26T05:35:56.727Z,6.85
2023-10-26T05:36:59.001Z,7.45
2023-10-26T05:38:01.032Z,6.97
2023-10-26T05:39:03.287Z,7.03
2023-10-26T05:40:06.615Z,6.52
2023-10-26T05:41:08.749Z,6.92
2023-10-26T05:42:13.368Z,7.18
2023-10-26T05:43:15.460Z,7.41
2023-10-26T05:44:17.377Z,7.31
2023-10-26T05:45:19.547Z,6.97
2023-10-26T05:46:21.988Z,8.00
2023-10-26T05:47:24.437Z,7.81
2023-10-26T05:48:29.558Z,7.35
2023-10-26T05:49:31.568Z,6.86
2023-10-26T05:50:33.682Z,6.39
2023-10-26T05:51:35.908Z,6.65
2023-10-26T05:52:39.161Z,7.01
2023-10-26T05:53:41.159Z,7.64
2023-10-26T05:54:43.421Z,6.90
2023-10-26T05:55:52.368Z,7.79
2023-10-26T05:56:54.597Z,7.51
2023-10-26T05:57:56.660Z,7.15
2023-10-26T05:59:00.410Z,8.19
2023-10-26T06:00:03.200Z,8.09
2023-10-26T06:01:05.895Z,7.37
2023-10-26T06:02:08.549Z,8.30
2023-10-26T06:03:10.656Z,8.67
2023-10-26T06:04:12.703Z,7.80
2023-10-26T06:05:14.840Z,8.38
2023-10-26T06:06:18.267Z,7.67
2023-10-26T06:07:20.247Z,7.81
2023-10-26T06:08:22.134Z,8.22
2023-10-26T06:09:24.139Z,8.95
2023-10-26T06:10:26.272Z,8.09
2023-10-26T06:11:28.257Z,8.33
2023-10-26T06:12:30.574Z,9.15
2023-10-26T06:13:40.190Z,8.28
2023-10-26T06:14:42.273Z,8.38
2023-10-26T06:15:46.079Z,7.88
2023-10-26T06:16:54.072Z,8.27
2023-10-26T06:18:11.168Z,7.87
2023-10-26T06:19:19.246Z,8.57
2023-10-26T06:20:24.430Z,7.33
2023-10-26T06:21:30.722Z,6.67
2023-10-26T06:22:34.819Z,6.65
2023-10-26T06:23:41.599Z,6.80
2023-10-26T06:24:48.223Z,7.07
2023-10-26T06:25:50.339Z,7.06
2023-10-26T06:26:55.129Z,6.97
2023-10-26T06:28:03.749Z,7.50
2023-10-26T06:29:07.333Z,8.54
2023-10-26T06:30:11.361Z,10.03
2023-10-26T06:31:14.261Z,8.31
2023-10-26T06:32:18.617Z,8.08
2023-10-26T06:33:24.898Z,7.97
2023-10-26T06:34:30.047Z,7.26
2023-10-26T06:35:32.377Z,7.73
2023-10-26T06:36:34.662Z,6.89
2023-10-26T06:37:39.582Z,6.56
2023-10-26T06:38:42.600Z,6.49
2023-10-26T06:39:46.049Z,6.76
2023-10-26T06:40:48.829Z,5.94
2023-10-26T06:41:51.017Z,6.22
2023-10-26T06:42:57.533Z,5.76
2023-10-26T06:43:59.597Z,6.08
2023-10-26T06:45:04.410Z,6.13
2023-10-26T06:46:08.796Z,6.04
2023-10-26T06:47:12.050Z,6.16
2023-10-26T06:48:16.523Z,6.03
2023-10-26T06:49:30.109Z,5.71
2023-10-26T06:50:26.628Z,6.09
2023-10-26T06:51:29.666Z,6.24
2023-10-26T06:52:32.301Z,5.95
2023-10-26T06:53:35.122Z,7.11
2023-10-26T06:54:38.610Z,6.30
2023-10-26T06:55:41.659Z,5.91
2023-10-26T06:56:44.136Z,6.13
2023-10-26T06:57:46.180Z,6.70
2023-10-26T06:58:48.474Z,6.89
2023-10-26T06:59:51.156Z,7.31
2023-10-26T07:00:54.039Z,10.91
2023-10-26T07:02:08.428Z,8.60
2023-10-26T07:03:02.718Z,9.87
2023-10-26T07:04:05.405Z,12.71
2023-10-26T07:05:09.271Z,12.15
2023-10-26T07:06:11.608Z,10.84
2023-10-26T07:07:17.369Z,10.56
2023-10-26T07:08:19.883Z,8.64
2023-10-26T07:09:22.305Z,7.55
2023-10-26T07:10:27.622Z,7.16
2023-10-26T07:11:30.982Z,7.52
2023-10-26T07:12:33.535Z,8.59
2023-10-26T07:13:37.065Z,7.59
2023-10-26T07:14:41.195Z,8.02
2023-10-26T07:15:43.562Z,8.08
2023-10-26T07:16:46.895Z,7.27
2023-10-26T07:17:50.255Z,8.71
2023-10-26T07:18:56.456Z,8.83
2023-10-26T07:19:58.802Z,8.27
2023-10-26T07:21:10.306Z,8.57
2023-10-26T07:23:17.926Z,8.76
2023-10-26T07:24:20.034Z,8.65
2023-10-26T07:25:22.157Z,9.58
2023-10-26T07:26:24.668Z,9.07
2023-10-26T07:27:27.656Z,10.13
2023-10-26T07:28:30.875Z,8.82
2023-10-26T07:29:35.116Z,8.25
2023-10-26T07:30:44.032Z,8.33
2023-10-26T07:31:49.512Z,8.86
2023-10-26T07:32:51.604Z,11.10
2023-10-26T07:33:55.239Z,8.88
2023-10-26T07:34:57.234Z,7.77
2023-10-26T07:35:59.814Z,8.71
2023-10-26T07:37:02.411Z,7.38
2023-10-26T07:38:35.249Z,7.97
2023-10-26T07:39:45.663Z,7.80
2023-10-26T07:40:28.094Z,7.71
2023-10-26T07:41:20.280Z,7.94
2023-10-26T07:42:23.007Z,8.19
2023-10-26T07:43:31.908Z,8.33
2023-10-26T07:44:34.291Z,7.84
2023-10-26T07:45:36.671Z,7.75
2023-10-26T07:46:38.903Z,8.78
2023-10-26T07:47:42.389Z,8.52
2023-10-26T07:48:46.459Z,9.16
2023-10-26T07:49:49.685Z,8.49
2023-10-26T07:50:56.353Z,8.28
2023-10-26T07:51:59.243Z,7.48
2023-10-26T07:53:04.822Z,7.15
2023-10-26T07:54:07.165Z,6.94
2023-10-26T07:55:12.293Z,6.59
2023-10-26T07:56:16.262Z,5.91
2023-10-26T07:57:20.822Z,6.71
2023-10-26T07:58:27.471Z,6.56
2023-10-26T07:59:32.911Z,6.58
2023-10-26T08:00:39.191Z,6.24
2023-10-26T08:01:41.373Z,6.22
2023-10-26T08:02:44.472Z,7.10
2023-10-26T08:03:48.972Z,6.59
2023-10-26T08:04:51.883Z,6.39
2023-10-26T08:05:59.246Z,6.47
2023-10-26T08:07:03.686Z,6.90
2023-10-26T08:08:07.258Z,6.45
2023-10-26T08:09:11.587Z,6.41
2023-10-26T08:10:15.407Z,6.02
2023-10-26T08:11:20.247Z,6.93
2023-10-26T08:12:22.524Z,7.02
2023-10-26T08:13:24.626Z,5.83
2023-10-26T08:16:09.227Z,6.55
2023-10-26T08:16:10.230Z,6.68
2023-10-26T08:16:44.749Z,6.53
2023-10-26T08:17:48.450Z,6.72
2023-10-26T08:18:50.851Z,6.55
2023-10-26T08:19:58.336Z,7.99
2023-10-26T08:21:01.283Z,6.42
2023-10-26T08:22:06.642Z,6.96
2023-10-26T08:23:08.738Z,6.53
2023-10-26T08:24:11.123Z,6.59
2023-10-26T08:25:15.445Z,7.69
2023-10-26T08:26:18.335Z,6.19
2023-10-26T08:27:24.421Z,6.12
2023-10-26T08:28:31.530Z,6.54
2023-10-26T08:29:36.988Z,6.36
2023-10-26T08:30:40.934Z,6.66
2023-10-26T08:31:45.205Z,5.94
2023-10-26T08:32:52.596Z,6.41
2023-10-26T08:33:57.981Z,5.97
2023-10-26T08:35:05.679Z,5.73
2023-10-26T08:36:11.875Z,5.70
2023-10-26T08:37:14.697Z,6.28
2023-10-26T08:38:17.519Z,4.94
2023-10-26T08:39:20.058Z,5.83
2023-10-26T08:40:23.747Z,5.37
2023-10-26T08:41:28.993Z,5.08
2023-10-26T08:42:32.990Z,5.07
2023-10-26T08:43:37.458Z,5.59
2023-10-26T08:44:41.147Z,4.98
2023-10-26T08:47:06.235Z,5.64
2023-10-26T08:48:16.467Z,5.17
2023-10-26T08:49:22.503Z,4.98
2023-10-26T08:50:26.479Z,5.68
2023-10-26T08:51:31.231Z,5.39
2023-10-26T08:52:39.044Z,5.10
2023-10-26T08:53:41.715Z,4.74
2023-10-26T08:54:45.273Z,4.92
2023-10-26T08:55:53.276Z,4.90
2023-10-26T08:56:56.158Z,4.97
2023-10-26T08:57:58.432Z,5.11
2023-10-26T08:59:03.478Z,5.27
2023-10-26T09:00:08.301Z,5.73
2023-10-26T09:01:17.930Z,6.17
2023-10-26T09:02:21.363Z,5.46
2023-10-26T09:03:24.199Z,6.06
2023-10-26T09:04:31.721Z,5.59
2023-10-26T09:05:35.834Z,5.96
2023-10-26T09:07:03.482Z,5.65
2023-10-26T09:08:20.251Z,5.56
2023-10-26T09:09:24.473Z,5.75
2023-10-26T09:10:35.553Z,5.43
2023-10-26T09:11:41.076Z,5.39
2023-10-26T09:13:04.727Z,5.38
2023-10-26T09:14:20.907Z,6.00
2023-10-26T09:15:24.826Z,5.48
2023-10-26T09:16:36.147Z,5.34
2023-10-26T09:17:43.495Z,5.07
2023-10-26T09:18:55.733Z,5.04
2023-10-26T09:19:58.735Z,5.42
2023-10-26T09:21:11.888Z,5.19
2023-10-26T09:22:18.306Z,4.93
2023-10-26T09:23:29.303Z,5.57
2023-10-26T09:24:31.777Z,5.26
2023-10-26T09:25:34.086Z,5.71
2023-10-26T09:26:40.649Z,4.99
2023-10-26T09:27:45.613Z,5.07
2023-10-26T09:28:53.019Z,5.24
2023-10-26T09:29:57.268Z,4.84
2023-10-26T09:31:00.201Z,5.22
2023-10-26T09:32:04.493Z,4.79
2023-10-26T09:33:12.126Z,5.03
2023-10-26T09:34:14.917Z,5.87
2023-10-26T09:35:34.565Z,5.40
2023-10-26T09:36:39.340Z,4.81
2023-10-26T09:37:53.112Z,5.22
2023-10-26T09:38:58.633Z,4.48
2023-10-26T09:40:16.170Z,4.65
2023-10-26T09:41:22.960Z,5.14
2023-10-26T09:42:28.137Z,5.06
2023-10-26T09:43:31.102Z,4.82
2023-10-26T09:44:37.956Z,4.45
2023-10-26T09:45:46.783Z,5.12
2023-10-26T09:46:53.533Z,4.51
2023-10-26T09:48:01.023Z,4.51
2023-10-26T09:49:04.335Z,5.08
2023-10-26T09:50:09.066Z,4.96
2023-10-26T09:51:15.325Z,4.87
2023-10-26T09:52:21.675Z,5.57
2023-10-26T09:53:26.406Z,5.42
2023-10-26T09:54:41.511Z,5.67
2023-10-26T09:55:46.761Z,4.71
2023-10-26T09:56:54.677Z,4.58
2023-10-26T09:58:06.454Z,5.02
2023-10-26T09:59:09.522Z,4.22
2023-10-26T10:00:13.581Z,4.78
2023-10-26T10:01:36.409Z,4.52
2023-10-26T10:02:40.940Z,4.82
2023-10-26T10:03:47.140Z,6.26
2023-10-26T10:04:52.425Z,5.61
2023-10-26T10:05:56.162Z,5.82
2023-10-26T10:07:00.544Z,4.94
2023-10-26T10:08:03.729Z,4.35
2023-10-26T10:09:07.056Z,4.44
2023-10-26T10:10:14.619Z,4.87
2023-10-26T10:11:22.646Z,4.61
2023-10-26T10:12:35.564Z,4.34
2023-10-26T10:13:50.373Z,4.89
2023-10-26T10:14:58.377Z,4.08
2023-10-26T10:16:03.128Z,4.33
2023-10-26T10:17:09.923Z,3.92
2023-10-26T10:18:13.521Z,4.12
2023-10-26T10:19:34.463Z,4.04
2023-10-26T10:20:39.590Z,4.70
2023-10-26T10:21:43.913Z,4.86
2023-10-26T10:22:50.024Z,4.78
2023-10-26T10:23:54.047Z,4.20
2023-10-26T10:24:59.100Z,3.96
2023-10-26T10:26:26.077Z,4.53
2023-10-26T10:27:20.597Z,4.32
2023-10-26T10:28:23.829Z,4.65
2023-10-26T10:29:27.080Z,4.13
2023-10-26T10:30:35.972Z,4.70
2023-10-26T10:31:43.817Z,5.12
2023-10-26T10:32:49.890Z,4.31
2023-10-26T10:34:12.337Z,4.32
2023-10-26T10:35:44.165Z,4.40
2023-10-26T10:37:11.771Z,4.08
2023-10-26T10:38:19.132Z,4.06
2023-10-26T10:39:24.831Z,4.45
2023-10-26T10:40:31.621Z,4.97
2023-10-26T10:41:38.003Z,4.93
2023-10-26T10:42:57.101Z,4.31
2023-10-26T10:44:02.048Z,3.79
2023-10-26T10:45:14.674Z,4.55
2023-10-26T10:46:25.940Z,4.91
2023-10-26T10:47:31.989Z,5.58
2023-10-26T10:48:38.409Z,6.02
2023-10-26T10:49:44.035Z,5.36
2023-10-26T10:50:52.419Z,5.21
2023-10-26T10:51:59.763Z,5.29
2023-10-26T10:53:04.097Z,4.89
2023-10-26T10:54:22.336Z,5.49
2023-10-26T10:55:30.295Z,5.54
2023-10-26T10:56:45.640Z,5.61
2023-10-26T10:57:57.791Z,5.33
2023-10-26T10:59:02.621Z,5.27
2023-10-26T11:00:07.591Z,5.18
2023-10-26T11:01:12.446Z,5.57
2023-10-26T11:02:19.157Z,5.17
2023-10-26T11:03:22.835Z,6.11
2023-10-26T11:04:25.320Z,5.21
2023-10-26T11:05:39.702Z,5.41
2023-10-26T11:06:48.865Z,4.98
2023-10-26T11:07:53.785Z,5.79
2023-10-26T11:09:00.102Z,5.32
2023-10-26T11:10:04.753Z,5.58
2023-10-26T11:11:08.267Z,5.55
2023-10-26T11:12:17.663Z,5.38
2023-10-26T11:13:24.576Z,4.59
2023-10-26T11:14:32.344Z,6.34
2023-10-26T11:16:53.358Z,4.99
2023-10-26T11:17:59.413Z,5.52
2023-10-26T11:19:02.572Z,4.98
2023-10-26T11:20:07.401Z,5.10
2023-10-26T11:21:19.381Z,4.76
2023-10-26T11:22:30.300Z,5.41
2023-10-26T11:23:37.855Z,4.99
2023-10-26T11:24:45.131Z,4.83
2023-10-26T11:25:57.896Z,5.72
2023-10-26T11:27:11.147Z,5.60
2023-10-26T11:28:14.678Z,5.07
2023-10-26T11:29:18.694Z,5.93
2023-10-26T11:30:40.220Z,4.96
2023-10-26T11:31:46.210Z,4.77
2023-10-26T11:32:51.697Z,4.84
2023-10-26T11:35:20.159Z,4.93
2023-10-26T11:36:24.903Z,5.39
2023-10-26T11:37:27.845Z,15.27
2023-10-26T11:38:33.142Z,8.14
2023-10-26T11:39:37.613Z,5.61
2023-10-26T11:40:49.399Z,5.20
2023-10-26T11:43:34.929Z,4.91
2023-10-26T11:44:44.522Z,5.38
2023-10-26T11:45:55.889Z,4.83
2023-10-26T11:46:58.220Z,5.49
2023-10-26T11:48:04.851Z,5.19
2023-10-26T11:49:08.612Z,5.47
2023-10-26T11:50:26.893Z,5.46
2023-10-26T11:51:33.488Z,5.53
2023-10-26T11:52:37.333Z,6.16
2023-10-26T11:53:41.892Z,5.48
2023-10-26T11:54:55.509Z,5.92
2023-10-26T11:56:01.801Z,5.16
2023-10-26T11:57:06.652Z,5.26
2023-10-26T11:58:08.766Z,5.76
2023-10-26T11:59:11.167Z,5.14
2023-10-26T12:00:16.749Z,5.64
2023-10-26T12:01:18.728Z,5.79
2023-10-26T12:02:23.059Z,5.89
2023-10-26T12:03:28.019Z,5.28
2023-10-26T12:04:31.341Z,5.59
2023-10-26T12:05:33.632Z,5.57
2023-10-26T12:06:40.837Z,5.19
2023-10-26T12:07:51.149Z,5.61
2023-10-26T12:08:57.616Z,5.47
2023-10-26T12:10:06.401Z,5.64
2023-10-26T12:11:11.754Z,4.84
2023-10-26T12:12:15.937Z,5.21
2023-10-26T12:13:19.945Z,5.26
2023-10-26T12:14:22.474Z,5.24
2023-10-26T12:15:32.495Z,4.69
2023-10-26T12:16:36.323Z,5.26
2023-10-26T12:17:42.637Z,4.42
2023-10-26T12:18:51.253Z,4.50
2023-10-26T12:19:55.957Z,5.23
2023-10-26T12:20:59.744Z,5.59
2023-10-26T12:22:06.241Z,5.34
2023-10-26T12:23:10.207Z,5.06
2023-10-26T12:24:17.125Z,5.15
2023-10-26T12:25:21.079Z,4.57
2023-10-26T12:26:30.942Z,5.42
2023-10-26T12:28:21.646Z,5.09
2023-10-26T12:28:42.504Z,5.13
2023-10-26T12:29:47.862Z,4.48
2023-10-26T12:30:51.134Z,5.09
2023-10-26T12:31:56.220Z,4.88
2023-10-26T12:32:59.678Z,4.54
2023-10-26T12:34:09.087Z,4.61
2023-10-26T12:35:10.812Z,4.49
2023-10-26T12:36:14.393Z,5.49
2023-10-26T12:37:20.344Z,5.41
2023-10-26T12:38:26.201Z,5.22
2023-10-26T12:39:30.179Z,5.14
2023-10-26T12:40:35.306Z,4.88
2023-10-26T12:41:38.598Z,4.88
2023-10-26T12:42:40.825Z,5.16
2023-10-26T12:43:44.137Z,4.71
2023-10-26T12:44:49.127Z,4.87
2023-10-26T12:45:55.722Z,4.75
2023-10-26T12:46:58.696Z,5.09
2023-10-26T12:48:03.201Z,5.68
2023-10-26T12:49:12.670Z,4.59
2023-10-26T12:50:18.082Z,4.96
2023-10-26T12:51:23.233Z,5.13
2023-10-26T12:52:30.696Z,4.91
2023-10-26T12:53:34.354Z,5.09
2023-10-26T12:54:39.541Z,5.12
2023-10-26T12:55:49.212Z,4.60
2023-10-26T12:56:50.622Z,5.42
2023-10-26T12:57:58.754Z,4.98
2023-10-26T12:59:04.425Z,4.82
2023-10-26T13:01:32.088Z,5.03
2023-10-26T13:02:35.465Z,6.87
2023-10-26T13:03:45.927Z,5.25
2023-10-26T13:04:48.194Z,5.66
2023-10-26T13:05:56.069Z,4.55
2023-10-26T13:07:03.499Z,4.86
2023-10-26T13:08:10.882Z,4.88
2023-10-26T13:09:13.508Z,4.54
2023-10-26T13:10:17.858Z,5.14
2023-10-26T13:11:23.705Z,4.50
2023-10-26T13:12:26.518Z,4.96
2023-10-26T13:13:31.338Z,5.53
2023-10-26T13:14:41.552Z,5.44
2023-10-26T13:15:50.667Z,5.29
2023-10-26T13:16:58.864Z,5.62
2023-10-26T13:18:06.461Z,6.21
2023-10-26T13:19:12.720Z,8.72
2023-10-26T13:20:16.702Z,9.23
2023-10-26T13:21:24.253Z,9.06
2023-10-26T13:22:33.657Z,8.96
2023-10-26T13:23:49.193Z,8.28
2023-10-26T13:24:55.844Z,8.77
2023-10-26T13:26:01.960Z,11.61
2023-10-26T13:27:10.211Z,9.86
2023-10-26T13:28:12.683Z,9.67
2023-10-26T13:29:16.362Z,9.37
2023-10-26T13:30:21.464Z,26.15
2023-10-26T13:31:27.860Z,31.93
2023-10-26T13:32:30.865Z,14.17
2023-10-26T13:33:36.353Z,6.83
2023-10-26T13:34:44.904Z,8.12
2023-10-26T13:35:53.496Z,6.37
2023-10-26T13:37:07.246Z,6.55
2023-10-26T13:38:15.281Z,6.13
2023-10-26T13:39:17.847Z,5.91
2023-10-26T13:40:21.993Z,5.96
2023-10-26T13:41:34.802Z,6.40
2023-10-26T13:42:37.094Z,5.69
2023-10-26T13:43:39.853Z,6.84
2023-10-26T13:44:45.028Z,6.30
2023-10-26T13:45:53.733Z,5.91
2023-10-26T13:46:56.572Z,6.13
2023-10-26T13:48:01.827Z,5.75
2023-10-26T13:49:04.942Z,5.93
2023-10-26T13:50:15.104Z,5.61
2023-10-26T13:51:24.440Z,5.84
2023-10-26T13:52:28.911Z,5.35
2023-10-26T13:53:35.598Z,6.29
2023-10-26T13:54:43.277Z,5.65
2023-10-26T13:55:53.400Z,6.08
2023-10-26T13:56:58.253Z,6.26
2023-10-26T13:58:05.987Z,6.23
2023-10-26T13:59:10.375Z,6.11
2023-10-26T14:00:16.191Z,6.61
2023-10-26T14:01:22.017Z,6.91
2023-10-26T14:02:26.682Z,7.17
2023-10-26T14:03:33.568Z,6.13
2023-10-26T14:04:48.817Z,6.35
2023-10-26T14:05:56.950Z,6.02
2023-10-26T14:07:01.494Z,6.51
2023-10-26T14:08:07.481Z,6.29
2023-10-26T14:10:36.606Z,7.17
2023-10-26T14:11:40.710Z,7.13
2023-10-26T14:12:44.114Z,6.46
2023-10-26T14:13:46.908Z,6.83
2023-10-26T14:14:53.249Z,7.18
2023-10-26T14:15:56.743Z,8.07
2023-10-26T14:17:03.355Z,8.55
2023-10-26T14:18:12.062Z,9.37
2023-10-26T14:19:14.709Z,8.77
2023-10-26T14:20:19.845Z,9.06
2023-10-26T14:21:27.304Z,9.66
2023-10-26T14:22:29.833Z,9.07
2023-10-26T14:23:35.825Z,8.87